Pagina principale
METAR-TAF:

METAR-TAF

Aeroporti :

Banja Luka, Bosnia-Erzegovina

latitudine: 44-47N, longitudine: 017-13E, altezza: 156 m

Osservazione

Il bollettino è stato emesso 7 minuti fa, alle 08:00 UTC
Vento 6 kt da nord/nord-ovest
Temperature 21°C
Umidità 53%
Pressione 1020 hPa
Visibilità 10 km o più
nessuna nube inferiore a 1500 m e nessun cumulonembo

METAR: LQBK 270800Z 34006KT CAVOK 21/11 Q1020 NOSIG

Ora: 10:07 (08:07 UTC)

Previsione

Il bollettino è stato emesso 3 ore e 7 minuti fa, alle 05:00 UTC
Previsione valida dal 27 alle 06 UTC al 28 alle 06 UTC
Vento 2 kt da direzioni variabili
Visibilità 10 km o più
nessuna nube inferiore a 1500 m e nessun cumulonembo
Probabilità 30% :
Temporaneamente
dal 27 alle 11 UTC al 27 alle 16 UTC
Vento 12 kt da nord-ovest

TAF: LQBK 270500Z 2706/2806 VRB02KT CAVOK TX24/2713Z TN12/2804Z PROB30 TEMPO 2711/2716 32012KT

Osservazioni e previsioni meteorologiche di più di 4000 aeroporti (messaggi METAR e TAF).

Le stazioni disponibili sono rappresentate dai dischi gialli e rossi sulla carta.

Puntare il mouse per vedere il nome della stazione.

Clicca sopra per visualizzare le osservazioni e previsioni meteorologiche.

Per cambiare la mappa : fare clic sui pulsanti verdi con una croce nera per ingrandire, il pulsante verde con un trattino per diminuire, o sulla freccia verde per le mappe adiacenti.


METAR-TAF: